地図

経路データ

SID SEASON NUMBER BASIN SUBBASIN NAME ISO_TIME NATURE LAT LON WMO_WIND WMO_PRES WMO_AGENCY TRACK_TYPE DIST2LAND LANDFALL IFLAG USA_AGENCY USA_ATCF_ID USA_LAT USA_LON USA_RECORD USA_STATUS USA_WIND USA_PRES USA_SSHS USA_R34_NE USA_R34_SE USA_R34_SW USA_R34_NW USA_R50_NE USA_R50_SE USA_R50_SW USA_R50_NW USA_R64_NE USA_R64_SE USA_R64_SW USA_R64_NW USA_POCI USA_ROCI USA_RMW USA_EYE TOKYO_LAT TOKYO_LON TOKYO_GRADE TOKYO_WIND TOKYO_PRES TOKYO_R50_DIR TOKYO_R50_LONG TOKYO_R50_SHORT TOKYO_R30_DIR TOKYO_R30_LONG TOKYO_R30_SHORT TOKYO_LAND CMA_LAT CMA_LON CMA_CAT CMA_WIND CMA_PRES HKO_LAT HKO_LON HKO_CAT HKO_WIND HKO_PRES NEWDELHI_LAT NEWDELHI_LON NEWDELHI_GRADE NEWDELHI_WIND NEWDELHI_PRES NEWDELHI_CI NEWDELHI_DP NEWDELHI_POCI REUNION_LAT REUNION_LON REUNION_TYPE REUNION_WIND REUNION_PRES REUNION_TNUM REUNION_CI REUNION_RMW REUNION_R34_NE REUNION_R34_SE REUNION_R34_SW REUNION_R34_NW REUNION_R50_NE REUNION_R50_SE REUNION_R50_SW REUNION_R50_NW REUNION_R64_NE REUNION_R64_SE REUNION_R64_SW REUNION_R64_NW BOM_LAT BOM_LON BOM_TYPE BOM_WIND BOM_PRES BOM_TNUM BOM_CI BOM_RMW BOM_R34_NE BOM_R34_SE BOM_R34_SW BOM_R34_NW BOM_R50_NE BOM_R50_SE BOM_R50_SW BOM_R50_NW BOM_R64_NE BOM_R64_SE BOM_R64_SW BOM_R64_NW BOM_ROCI BOM_POCI BOM_EYE BOM_POS_METHOD BOM_PRES_METHOD NADI_LAT NADI_LON NADI_CAT NADI_WIND NADI_PRES WELLINGTON_LAT WELLINGTON_LON WELLINGTON_WIND WELLINGTON_PRES DS824_LAT DS824_LON DS824_STAGE DS824_WIND DS824_PRES TD9636_LAT TD9636_LON TD9636_STAGE TD9636_WIND TD9636_PRES TD9635_LAT TD9635_LON TD9635_WIND TD9635_PRES TD9635_ROCI NEUMANN_LAT NEUMANN_LON NEUMANN_CLASS NEUMANN_WIND NEUMANN_PRES MLC_LAT MLC_LON MLC_CLASS MLC_WIND MLC_PRES USA_GUST BOM_GUST BOM_GUST_PER REUNION_GUST REUNION_GUST_PER USA_SEAHGT USA_SEARAD_NE USA_SEARAD_SE USA_SEARAD_SW USA_SEARAD_NW STORM_SPEED STORM_DIR
1922109N09093 1922 27 NI BB NOT_NAMED 1922-04-19 00:00:00 TS 9.10000 93.1000 main 455 455 _________O____ -1 9.10000 93.1000 TC 34 4 354
1922109N09093 1922 27 NI BB NOT_NAMED 1922-04-19 03:00:00 TS 9.30834 93.0717 main 474 474 _________PO___ -1 9.41250 93.0575 TC 36 9.10000 93.1000 2 5 350
1922109N09093 1922 27 NI BB NOT_NAMED 1922-04-19 06:00:00 TS 9.56624 93.0175 main 509 509 _________OP___ -1 9.70000 93.0000 TC 39 9.36561 93.0438 2 5 346
1922109N09093 1922 27 NI BB NOT_NAMED 1922-04-19 09:00:00 TS 9.81499 92.9428 main 534 534 _________PP___ -1 9.94999 92.9150 TC 42 9.63498 92.9800 2 5 342
1922109N09093 1922 27 NI BB NOT_NAMED 1922-04-19 12:00:00 TS 10.0559 92.8506 main 564 564 _________OP___ -1 10.2000 92.8000 TC 45 9.91186 92.9012 2 6 338
1922109N09093 1922 27 NI BB NOT_NAMED 1922-04-19 15:00:00 TS 10.3425 92.7288 main 594 594 _________PO___ -1 10.4850 92.6575 TC 45 10.2000 92.8000 3 7 337
1922109N09093 1922 27 NI BB NOT_NAMED 1922-04-19 18:00:00 TS 10.6513 92.5858 main 603 579 _________OP___ -1 10.8000 92.5000 TC 45 10.5025 92.6716 3 7 336
1922109N09093 1922 27 NI BB NOT_NAMED 1922-04-19 21:00:00 TS 10.9775 92.4362 main 579 552 _________PP___ -1 11.1350 92.3500 TC 45 10.8200 92.5225 3 7 336
1922109N09093 1922 27 NI BB NOT_NAMED 1922-04-20 00:00:00 TS 11.3263 92.2811 main 552 521 _________OP___ -1 11.5000 92.2000 TC 45 11.1525 92.3621 3 8 337
1922109N09093 1922 27 NI BB NOT_NAMED 1922-04-20 03:00:00 TS 11.7000 92.1250 main 521 488 _________PO___ -1 11.9000 92.0500 TC 45 11.5000 92.2000 3 8 338
1922109N09093 1922 27 NI BB NOT_NAMED 1922-04-20 06:00:00 TS 12.0864 91.9730 main 488 466 _________OP___ -1 12.3000 91.9000 TC 45 11.8728 92.0460 3 8 339
1922109N09093 1922 27 NI BB NOT_NAMED 1922-04-20 09:00:00 TS 12.4612 91.8212 main 463 444 _________PP___ -1 12.6650 91.7500 TC 45 12.2575 91.8925 3 8 338
1922109N09093 1922 27 NI BB NOT_NAMED 1922-04-20 12:00:00 TS 12.8192 91.6714 main 444 427 _________OP___ -1 13.0000 91.6000 TC 45 12.6384 91.7428 3 8 337
1922109N09093 1922 27 NI BB NOT_NAMED 1922-04-20 15:00:00 TS 13.1538 91.5212 main 426 418 _________PO___ -1 13.3075 91.4425 TC 49 13.0000 91.6000 3 7 336
1922109N09093 1922 27 NI BB NOT_NAMED 1922-04-20 18:00:00 TS 13.4567 91.3838 main 411 404 _________OP___ -1 13.6000 91.3000 TC 54 13.3134 91.4676 3 6 338
1922109N09093 1922 27 NI BB NOT_NAMED 1922-04-20 21:00:00 TS 13.7500 91.2711 main 404 392 _________PP___ -1 13.8925 91.1999 TC 59 13.6074 91.3422 3 6 340
1922109N09093 1922 27 NI BB NOT_NAMED 1922-04-21 00:00:00 TS 14.0489 91.1604 main 392 383 _________OP___ -1 14.2000 91.1000 TC 64 13.8978 91.2207 3 7 339
1922109N09093 1922 27 NI BB NOT_NAMED 1922-04-21 03:00:00 TS 14.3713 91.0250 main 387 382 _________PO___ -1 14.5425 90.9500 TC 64 14.2000 91.1000 4 7 339
1922109N09093 1922 27 NI BB NOT_NAMED 1922-04-21 06:00:00 TS 14.7239 90.8855 main 382 378 _________OP___ -1 14.9000 90.8000 TC 64 14.5478 90.9710 4 8 341
1922109N09093 1922 27 NI BB NOT_NAMED 1922-04-21 09:00:00 TS 15.0862 90.7675 main 378 378 _________PP___ -1 15.2650 90.6925 TC 64 14.9075 90.8425 4 7 343
1922109N09093 1922 27 NI BB NOT_NAMED 1922-04-21 12:00:00 TS 15.4317 90.6589 main 380 380 _________OP___ -1 15.6000 90.6000 TC 64 15.2634 90.7178 4 7 342
1922109N09093 1922 27 NI BB NOT_NAMED 1922-04-21 15:00:00 TS 15.7287 90.5500 main 386 395 _________PO___ -1 15.8575 90.4999 TC 64 15.6000 90.6000 4 6 339
1922109N09093 1922 27 NI BB NOT_NAMED 1922-04-21 18:00:00 TS 15.9962 90.4383 main 406 406 _________OP___ -1 16.1000 90.4000 TC 64 15.8925 90.4765 4 6 339
1922109N09093 1922 27 NI BB NOT_NAMED 1922-04-21 21:00:00 TS 16.2788 90.3275 main 418 418 _________PP___ -1 16.3925 90.2925 TC 64 16.1650 90.3625 4 6 341
1922109N09093 1922 27 NI BB NOT_NAMED 1922-04-22 00:00:00 TS 16.5650 90.2336 main 432 432 _________OP___ -1 16.7000 90.2000 TC 64 16.4300 90.2672 4 6 345
1922109N09093 1922 27 NI BB NOT_NAMED 1922-04-22 03:00:00 TS 16.8500 90.1638 main 438 435 _________PO___ -1 17.0000 90.1275 TC 64 16.7000 90.2000 4 6 351
1922109N09093 1922 27 NI BB NOT_NAMED 1922-04-22 06:00:00 TS 17.1444 90.1295 main 435 420 _________OP___ -1 17.3000 90.1000 TC 64 16.9887 90.1590 4 6 0
1922109N09093 1922 27 NI BB NOT_NAMED 1922-04-22 09:00:00 TS 17.4387 90.1412 main 420 390 _________PP___ -1 17.5925 90.1350 TC 64 17.2850 90.1475 4 6 5
1922109N09093 1922 27 NI BB NOT_NAMED 1922-04-22 12:00:00 TS 17.7444 90.1811 main 390 359 _________OP___ -1 17.9000 90.2000 TC 64 17.5887 90.1622 4 6 7
1922109N09093 1922 27 NI BB NOT_NAMED 1922-04-22 15:00:00 TS 18.0750 90.2213 main 359 329 _________PO___ -1 18.2500 90.2426 TC 64 17.9000 90.2000 4 6 8
1922109N09093 1922 27 NI BB NOT_NAMED 1922-04-22 18:00:00 TS 18.3820 90.2756 main 329 308 _________OP___ -1 18.6000 90.3000 TC 64 18.2185 90.2573 4 6 11
1922109N09093 1922 27 NI BB NOT_NAMED 1922-04-22 21:00:00 TS 18.6905 90.3538 main 300 281 _________PP___ -1 18.9125 90.3899 TC 64 18.5426 90.3297 4 6 15
1922109N09093 1922 27 NI BB NOT_NAMED 1922-04-23 00:00:00 TS 18.9802 90.4415 main 281 259 _________OP___ -1 19.2000 90.5000 TC 64 18.8704 90.4122 4 5 15
1922109N09093 1922 27 NI BB NOT_NAMED 1922-04-23 03:00:00 NR 19.2000 90.5000 main 259 __________O___ -1 TC 19.2000 90.5000 4 5 15

IBTrACS Databaseについて

本データベースは、米国NOAAが公開する1842年以降の世界の熱帯低気圧のベストトラックデータアーカイブInternational Best Track Archive for Climate Stewardship (IBTrACS)を、ウェブで閲覧しやすい形式に変換したものです。

最終更新日:2021-11-26